sensor_id;sensor_type;location;lat;lon;timestamp;P1;durP1;ratioP1;P2;durP2;ratioP2
67986;SDS011;54767;53.800;15.956;2022-09-17T00:02:02;6.20;;;1.30;;
67986;SDS011;54767;53.800;15.956;2022-09-17T00:04:34;2.40;;;0.90;;
67986;SDS011;54767;53.800;15.956;2022-09-17T00:07:02;2.00;;;0.80;;
67986;SDS011;54767;53.800;15.956;2022-09-17T00:09:30;3.90;;;1.20;;
67986;SDS011;54767;53.800;15.956;2022-09-17T00:11:59;3.50;;;1.00;;
67986;SDS011;54767;53.800;15.956;2022-09-17T00:14:27;3.10;;;1.00;;
67986;SDS011;54767;53.800;15.956;2022-09-17T00:16:55;3.10;;;1.20;;
67986;SDS011;54767;53.800;15.956;2022-09-17T00:19:28;1.80;;;0.80;;
67986;SDS011;54767;53.800;15.956;2022-09-17T00:21:56;2.50;;;1.00;;
67986;SDS011;54767;53.800;15.956;2022-09-17T00:24:24;1.80;;;0.90;;
67986;SDS011;54767;53.800;15.956;2022-09-17T00:26:53;2.70;;;0.80;;
67986;SDS011;54767;53.800;15.956;2022-09-17T00:41:11;1.00;;;0.60;;
67986;SDS011;54767;53.800;15.956;2022-09-17T00:43:42;3.40;;;0.90;;
67986;SDS011;54767;53.800;15.956;2022-09-17T00:49:05;2.40;;;0.80;;
67986;SDS011;54767;53.800;15.956;2022-09-17T00:51:40;4.80;;;0.80;;
67986;SDS011;54767;53.800;15.956;2022-09-17T00:54:16;0.60;;;0.60;;
67986;SDS011;54767;53.800;15.956;2022-09-17T00:56:44;1.30;;;0.60;;
67986;SDS011;54767;53.800;15.956;2022-09-17T00:59:13;1.70;;;0.90;;
67986;SDS011;54767;53.800;15.956;2022-09-17T01:01:42;1.90;;;0.60;;
67986;SDS011;54767;53.800;15.956;2022-09-17T01:04:17;1.80;;;0.70;;
67986;SDS011;54767;53.800;15.956;2022-09-17T01:17:39;1.60;;;0.50;;
67986;SDS011;54767;53.800;15.956;2022-09-17T01:32:11;2.30;;;0.70;;
67986;SDS011;54767;53.800;15.956;2022-09-17T01:34:44;2.40;;;0.70;;
67986;SDS011;54767;53.800;15.956;2022-09-17T01:40:23;2.90;;;0.70;;
67986;SDS011;54767;53.800;15.956;2022-09-17T01:45:39;1.60;;;0.70;;
67986;SDS011;54767;53.800;15.956;2022-09-17T01:48:13;1.70;;;0.80;;
67986;SDS011;54767;53.800;15.956;2022-09-17T01:50:55;1.60;;;0.90;;
67986;SDS011;54767;53.800;15.956;2022-09-17T01:53:47;3.00;;;1.00;;
67986;SDS011;54767;53.800;15.956;2022-09-17T01:56:20;2.10;;;0.80;;
67986;SDS011;54767;53.800;15.956;2022-09-17T01:59:00;2.70;;;1.00;;
67986;SDS011;54767;53.800;15.956;2022-09-17T02:01:34;2.00;;;1.10;;
67986;SDS011;54767;53.800;15.956;2022-09-17T02:04:06;1.90;;;1.00;;
67986;SDS011;54767;53.800;15.956;2022-09-17T02:06:41;2.10;;;1.20;;
67986;SDS011;54767;53.800;15.956;2022-09-17T02:11:52;2.80;;;1.30;;
67986;SDS011;54767;53.800;15.956;2022-09-17T02:17:20;3.50;;;1.60;;
67986;SDS011;54767;53.800;15.956;2022-09-17T02:19:53;3.10;;;2.10;;
67986;SDS011;54767;53.800;15.956;2022-09-17T02:23:10;3.90;;;2.20;;
67986;SDS011;54767;53.800;15.956;2022-09-17T02:28:17;3.10;;;2.60;;
67986;SDS011;54767;53.800;15.956;2022-09-17T02:30:52;4.60;;;2.80;;
67986;SDS011;54767;53.800;15.956;2022-09-17T02:33:21;5.20;;;3.00;;
67986;SDS011;54767;53.800;15.956;2022-09-17T02:35:50;4.30;;;3.30;;
67986;SDS011;54767;53.800;15.956;2022-09-17T02:38:25;4.10;;;3.10;;
67986;SDS011;54767;53.800;15.956;2022-09-17T02:41:01;6.20;;;3.20;;
67986;SDS011;54767;53.800;15.956;2022-09-17T02:43:45;5.70;;;4.10;;
67986;SDS011;54767;53.800;15.956;2022-09-17T02:52:23;7.00;;;4.20;;
67986;SDS011;54767;53.800;15.956;2022-09-17T02:58:04;7.10;;;4.00;;
67986;SDS011;54767;53.800;15.956;2022-09-17T03:00:43;6.90;;;4.10;;
67986;SDS011;54767;53.800;15.956;2022-09-17T03:05:50;8.30;;;4.80;;
67986;SDS011;54767;53.800;15.956;2022-09-17T03:08:19;8.00;;;4.60;;
67986;SDS011;54767;53.800;15.956;2022-09-17T03:10:56;8.40;;;5.40;;
67986;SDS011;54767;53.800;15.956;2022-09-17T03:13:24;7.60;;;5.00;;
67986;SDS011;54767;53.800;15.956;2022-09-17T03:15:52;7.50;;;4.80;;
67986;SDS011;54767;53.800;15.956;2022-09-17T03:18:21;8.10;;;5.30;;
67986;SDS011;54767;53.800;15.956;2022-09-17T03:20:49;10.30;;;5.60;;
67986;SDS011;54767;53.800;15.956;2022-09-17T03:23:17;9.00;;;5.50;;
67986;SDS011;54767;53.800;15.956;2022-09-17T03:25:45;10.60;;;5.00;;
67986;SDS011;54767;53.800;15.956;2022-09-17T03:28:16;8.20;;;5.40;;
67986;SDS011;54767;53.800;15.956;2022-09-17T03:30:44;9.20;;;5.60;;
67986;SDS011;54767;53.800;15.956;2022-09-17T03:33:13;9.60;;;5.60;;
67986;SDS011;54767;53.800;15.956;2022-09-17T03:35:42;9.30;;;5.80;;
67986;SDS011;54767;53.800;15.956;2022-09-17T03:38:11;10.70;;;5.80;;
67986;SDS011;54767;53.800;15.956;2022-09-17T03:40:40;9.90;;;6.40;;
67986;SDS011;54767;53.800;15.956;2022-09-17T03:43:09;9.60;;;5.70;;
67986;SDS011;54767;53.800;15.956;2022-09-17T03:45:37;11.10;;;5.80;;
67986;SDS011;54767;53.800;15.956;2022-09-17T03:48:06;10.20;;;5.90;;
67986;SDS011;54767;53.800;15.956;2022-09-17T03:50:34;11.10;;;6.40;;
67986;SDS011;54767;53.800;15.956;2022-09-17T03:53:02;11.70;;;6.60;;
67986;SDS011;54767;53.800;15.956;2022-09-17T03:55:30;11.10;;;6.40;;
67986;SDS011;54767;53.800;15.956;2022-09-17T03:57:59;10.80;;;6.10;;
67986;SDS011;54767;53.800;15.956;2022-09-17T04:00:27;10.60;;;6.50;;
67986;SDS011;54767;53.800;15.956;2022-09-17T04:02:55;11.00;;;6.20;;
67986;SDS011;54767;53.800;15.956;2022-09-17T04:05:23;10.60;;;5.80;;
67986;SDS011;54767;53.800;15.956;2022-09-17T04:07:51;11.30;;;6.50;;
67986;SDS011;54767;53.800;15.956;2022-09-17T04:10:20;11.90;;;6.30;;
67986;SDS011;54767;53.800;15.956;2022-09-17T04:12:48;10.30;;;6.60;;
67986;SDS011;54767;53.800;15.956;2022-09-17T04:15:16;11.60;;;6.90;;
67986;SDS011;54767;53.800;15.956;2022-09-17T04:17:44;12.50;;;6.90;;
67986;SDS011;54767;53.800;15.956;2022-09-17T04:20:13;11.90;;;6.60;;
67986;SDS011;54767;53.800;15.956;2022-09-17T04:23:03;14.10;;;7.20;;
67986;SDS011;54767;53.800;15.956;2022-09-17T04:25:33;13.80;;;8.10;;
67986;SDS011;54767;53.800;15.956;2022-09-17T04:28:01;14.10;;;7.60;;
67986;SDS011;54767;53.800;15.956;2022-09-17T04:30:30;13.40;;;7.80;;
67986;SDS011;54767;53.800;15.956;2022-09-17T04:32:59;13.70;;;7.50;;
67986;SDS011;54767;53.800;15.956;2022-09-17T04:35:27;16.40;;;8.00;;
67986;SDS011;54767;53.800;15.956;2022-09-17T04:37:56;14.30;;;8.00;;
67986;SDS011;54767;53.800;15.956;2022-09-17T04:40:28;14.70;;;8.50;;
67986;SDS011;54767;53.800;15.956;2022-09-17T04:42:57;16.90;;;8.30;;
67986;SDS011;54767;53.800;15.956;2022-09-17T04:45:26;14.10;;;8.50;;
67986;SDS011;54767;53.800;15.956;2022-09-17T04:47:54;15.60;;;8.80;;
67986;SDS011;54767;53.800;15.956;2022-09-17T04:50:23;15.00;;;8.70;;
67986;SDS011;54767;53.800;15.956;2022-09-17T04:52:51;16.60;;;8.90;;
67986;SDS011;54767;53.800;15.956;2022-09-17T04:55:20;13.80;;;8.50;;
67986;SDS011;54767;53.800;15.956;2022-09-17T04:57:49;16.50;;;8.90;;
67986;SDS011;54767;53.800;15.956;2022-09-17T05:00:19;15.10;;;8.00;;
67986;SDS011;54767;53.800;15.956;2022-09-17T05:02:50;16.10;;;8.60;;
67986;SDS011;54767;53.800;15.956;2022-09-17T05:05:19;15.30;;;8.30;;
67986;SDS011;54767;53.800;15.956;2022-09-17T05:07:48;16.50;;;8.70;;
67986;SDS011;54767;53.800;15.956;2022-09-17T05:10:17;17.20;;;9.20;;
67986;SDS011;54767;53.800;15.956;2022-09-17T05:12:50;17.40;;;8.50;;
67986;SDS011;54767;53.800;15.956;2022-09-17T05:15:20;14.70;;;8.50;;
67986;SDS011;54767;53.800;15.956;2022-09-17T05:17:50;15.90;;;8.40;;
67986;SDS011;54767;53.800;15.956;2022-09-17T05:20:18;16.50;;;8.90;;
67986;SDS011;54767;53.800;15.956;2022-09-17T05:22:47;17.40;;;9.10;;
67986;SDS011;54767;53.800;15.956;2022-09-17T05:25:19;17.40;;;9.60;;
67986;SDS011;54767;53.800;15.956;2022-09-17T05:27:52;16.40;;;8.70;;
67986;SDS011;54767;53.800;15.956;2022-09-17T05:30:21;19.60;;;9.70;;
67986;SDS011;54767;53.800;15.956;2022-09-17T05:32:57;17.90;;;9.30;;
67986;SDS011;54767;53.800;15.956;2022-09-17T05:35:33;17.20;;;8.80;;
67986;SDS011;54767;53.800;15.956;2022-09-17T05:38:03;16.30;;;8.80;;
67986;SDS011;54767;53.800;15.956;2022-09-17T05:40:34;17.50;;;9.30;;
67986;SDS011;54767;53.800;15.956;2022-09-17T05:43:05;14.70;;;8.70;;
67986;SDS011;54767;53.800;15.956;2022-09-17T05:45:34;15.80;;;8.90;;
67986;SDS011;54767;53.800;15.956;2022-09-17T05:48:05;15.20;;;9.00;;
67986;SDS011;54767;53.800;15.956;2022-09-17T05:50:34;17.60;;;9.10;;
67986;SDS011;54767;53.800;15.956;2022-09-17T05:53:06;15.30;;;8.60;;
67986;SDS011;54767;53.800;15.956;2022-09-17T05:55:39;17.50;;;8.30;;
67986;SDS011;54767;53.800;15.956;2022-09-17T05:58:07;14.90;;;8.70;;
67986;SDS011;54767;53.800;15.956;2022-09-17T06:00:40;15.60;;;8.90;;
67986;SDS011;54767;53.800;15.956;2022-09-17T06:03:09;16.90;;;7.90;;
67986;SDS011;54767;53.800;15.956;2022-09-17T06:08:07;17.00;;;8.30;;
67986;SDS011;54767;53.800;15.956;2022-09-17T06:10:36;16.70;;;9.40;;
67986;SDS011;54767;53.800;15.956;2022-09-17T06:13:05;16.80;;;8.80;;
67986;SDS011;54767;53.800;15.956;2022-09-17T06:15:33;17.80;;;9.40;;
67986;SDS011;54767;53.800;15.956;2022-09-17T06:18:02;14.90;;;8.90;;
67986;SDS011;54767;53.800;15.956;2022-09-17T06:20:30;16.70;;;8.30;;
67986;SDS011;54767;53.800;15.956;2022-09-17T06:22:59;16.10;;;9.10;;
67986;SDS011;54767;53.800;15.956;2022-09-17T06:25:27;16.30;;;8.50;;
67986;SDS011;54767;53.800;15.956;2022-09-17T06:27:57;15.60;;;8.40;;
67986;SDS011;54767;53.800;15.956;2022-09-17T06:30:46;17.60;;;8.30;;
67986;SDS011;54767;53.800;15.956;2022-09-17T06:33:15;16.10;;;8.30;;
67986;SDS011;54767;53.800;15.956;2022-09-17T06:35:43;15.80;;;7.60;;
67986;SDS011;54767;53.800;15.956;2022-09-17T06:38:12;15.50;;;8.60;;
67986;SDS011;54767;53.800;15.956;2022-09-17T06:40:40;17.00;;;9.00;;
67986;SDS011;54767;53.800;15.956;2022-09-17T06:43:08;16.00;;;8.80;;
67986;SDS011;54767;53.800;15.956;2022-09-17T06:45:37;14.20;;;8.00;;
67986;SDS011;54767;53.800;15.956;2022-09-17T06:48:06;16.10;;;8.10;;
67986;SDS011;54767;53.800;15.956;2022-09-17T06:50:36;15.40;;;7.70;;
67986;SDS011;54767;53.800;15.956;2022-09-17T06:53:09;14.50;;;7.70;;
67986;SDS011;54767;53.800;15.956;2022-09-17T06:55:42;14.40;;;7.80;;
67986;SDS011;54767;53.800;15.956;2022-09-17T06:58:10;14.50;;;8.10;;
67986;SDS011;54767;53.800;15.956;2022-09-17T07:00:39;15.10;;;7.60;;
67986;SDS011;54767;53.800;15.956;2022-09-17T07:03:07;14.10;;;7.80;;
67986;SDS011;54767;53.800;15.956;2022-09-17T07:05:36;12.40;;;7.60;;
67986;SDS011;54767;53.800;15.956;2022-09-17T07:08:05;14.50;;;6.70;;
67986;SDS011;54767;53.800;15.956;2022-09-17T07:10:33;11.90;;;6.30;;
67986;SDS011;54767;53.800;15.956;2022-09-17T07:13:01;12.50;;;6.50;;
67986;SDS011;54767;53.800;15.956;2022-09-17T07:15:31;11.70;;;6.70;;
67986;SDS011;54767;53.800;15.956;2022-09-17T07:17:59;10.90;;;7.00;;
67986;SDS011;54767;53.800;15.956;2022-09-17T07:20:29;11.80;;;6.90;;
67986;SDS011;54767;53.800;15.956;2022-09-17T07:22:57;9.50;;;6.10;;
67986;SDS011;54767;53.800;15.956;2022-09-17T07:25:25;10.70;;;6.80;;
67986;SDS011;54767;53.800;15.956;2022-09-17T07:27:54;10.20;;;6.00;;
67986;SDS011;54767;53.800;15.956;2022-09-17T07:30:23;10.00;;;6.10;;
67986;SDS011;54767;53.800;15.956;2022-09-17T07:32:52;9.60;;;5.30;;
67986;SDS011;54767;53.800;15.956;2022-09-17T07:35:20;7.20;;;5.10;;
67986;SDS011;54767;53.800;15.956;2022-09-17T07:37:49;9.00;;;5.30;;
67986;SDS011;54767;53.800;15.956;2022-09-17T07:40:20;9.20;;;6.10;;
67986;SDS011;54767;53.800;15.956;2022-09-17T07:42:49;7.40;;;5.20;;
67986;SDS011;54767;53.800;15.956;2022-09-17T07:45:25;9.20;;;6.40;;
67986;SDS011;54767;53.800;15.956;2022-09-17T07:47:53;11.30;;;5.60;;
67986;SDS011;54767;53.800;15.956;2022-09-17T07:50:22;9.60;;;5.20;;
67986;SDS011;54767;53.800;15.956;2022-09-17T07:52:50;8.60;;;5.60;;
67986;SDS011;54767;53.800;15.956;2022-09-17T07:55:18;10.00;;;5.20;;
67986;SDS011;54767;53.800;15.956;2022-09-17T07:57:50;8.00;;;5.20;;
67986;SDS011;54767;53.800;15.956;2022-09-17T08:00:19;7.80;;;5.00;;
67986;SDS011;54767;53.800;15.956;2022-09-17T08:02:52;7.70;;;4.70;;
67986;SDS011;54767;53.800;15.956;2022-09-17T08:05:22;8.10;;;4.60;;
67986;SDS011;54767;53.800;15.956;2022-09-17T08:07:51;7.00;;;4.40;;
67986;SDS011;54767;53.800;15.956;2022-09-17T08:10:21;7.30;;;4.10;;
67986;SDS011;54767;53.800;15.956;2022-09-17T08:12:53;9.70;;;4.40;;
67986;SDS011;54767;53.800;15.956;2022-09-17T08:15:23;4.70;;;3.50;;
67986;SDS011;54767;53.800;15.956;2022-09-17T08:17:52;5.00;;;3.30;;
67986;SDS011;54767;53.800;15.956;2022-09-17T08:20:20;7.80;;;3.40;;
67986;SDS011;54767;53.800;15.956;2022-09-17T08:22:56;4.80;;;3.30;;
67986;SDS011;54767;53.800;15.956;2022-09-17T08:25:26;4.60;;;3.10;;
67986;SDS011;54767;53.800;15.956;2022-09-17T08:27:54;5.20;;;3.30;;
67986;SDS011;54767;53.800;15.956;2022-09-17T08:30:23;4.80;;;3.30;;
67986;SDS011;54767;53.800;15.956;2022-09-17T08:32:53;4.50;;;2.80;;
67986;SDS011;54767;53.800;15.956;2022-09-17T08:35:23;3.40;;;2.60;;
67986;SDS011;54767;53.800;15.956;2022-09-17T08:37:53;3.20;;;2.20;;
67986;SDS011;54767;53.800;15.956;2022-09-17T08:40:22;5.90;;;2.60;;
67986;SDS011;54767;53.800;15.956;2022-09-17T08:43:00;4.00;;;2.30;;
67986;SDS011;54767;53.800;15.956;2022-09-17T08:45:29;6.30;;;2.40;;
67986;SDS011;54767;53.800;15.956;2022-09-17T08:48:00;4.80;;;2.20;;
67986;SDS011;54767;53.800;15.956;2022-09-17T08:50:32;2.80;;;2.20;;
67986;SDS011;54767;53.800;15.956;2022-09-17T08:59:00;3.20;;;1.90;;
67986;SDS011;54767;53.800;15.956;2022-09-17T09:04:21;2.30;;;1.90;;
67986;SDS011;54767;53.800;15.956;2022-09-17T09:07:03;4.10;;;1.90;;
67986;SDS011;54767;53.800;15.956;2022-09-17T09:09:36;4.60;;;1.90;;
67986;SDS011;54767;53.800;15.956;2022-09-17T09:12:23;2.90;;;1.70;;
67986;SDS011;54767;53.800;15.956;2022-09-17T09:17:24;1.70;;;1.60;;
67986;SDS011;54767;53.800;15.956;2022-09-17T09:19:56;2.70;;;1.70;;
67986;SDS011;54767;53.800;15.956;2022-09-17T09:27:36;2.60;;;1.90;;
67986;SDS011;54767;53.800;15.956;2022-09-17T09:30:11;3.90;;;2.10;;
67986;SDS011;54767;53.800;15.956;2022-09-17T09:35:31;3.90;;;2.10;;
67986;SDS011;54767;53.800;15.956;2022-09-17T09:40:42;5.10;;;2.30;;
67986;SDS011;54767;53.800;15.956;2022-09-17T09:43:19;4.20;;;2.40;;
67986;SDS011;54767;53.800;15.956;2022-09-17T09:49:23;2.90;;;2.40;;
67986;SDS011;54767;53.800;15.956;2022-09-17T10:00:43;2.20;;;1.30;;
67986;SDS011;54767;53.800;15.956;2022-09-17T10:06:00;5.90;;;1.50;;
67986;SDS011;54767;53.800;15.956;2022-09-17T10:08:31;6.20;;;1.70;;
67986;SDS011;54767;53.800;15.956;2022-09-17T10:11:05;4.70;;;1.60;;
67986;SDS011;54767;53.800;15.956;2022-09-17T10:13:47;5.30;;;2.10;;
67986;SDS011;54767;53.800;15.956;2022-09-17T10:18:49;5.20;;;2.20;;
67986;SDS011;54767;53.800;15.956;2022-09-17T10:21:38;3.70;;;1.50;;
67986;SDS011;54767;53.800;15.956;2022-09-17T10:26:59;3.90;;;1.50;;
67986;SDS011;54767;53.800;15.956;2022-09-17T10:29:29;3.40;;;1.40;;
67986;SDS011;54767;53.800;15.956;2022-09-17T10:31:58;13.90;;;5.90;;
67986;SDS011;54767;53.800;15.956;2022-09-17T10:34:30;6.40;;;3.60;;
67986;SDS011;54767;53.800;15.956;2022-09-17T10:37:00;5.50;;;2.90;;
67986;SDS011;54767;53.800;15.956;2022-09-17T10:39:30;6.60;;;3.00;;
67986;SDS011;54767;53.800;15.956;2022-09-17T10:42:14;2.20;;;1.60;;
67986;SDS011;54767;53.800;15.956;2022-09-17T10:44:54;3.90;;;1.10;;
67986;SDS011;54767;53.800;15.956;2022-09-17T10:47:25;1.10;;;0.70;;
67986;SDS011;54767;53.800;15.956;2022-09-17T10:49:58;1.70;;;0.90;;
67986;SDS011;54767;53.800;15.956;2022-09-17T10:52:35;1.30;;;0.80;;
67986;SDS011;54767;53.800;15.956;2022-09-17T11:15:33;4.30;;;1.30;;
67986;SDS011;54767;53.800;15.956;2022-09-17T11:29:38;3.80;;;2.00;;
67986;SDS011;54767;53.800;15.956;2022-09-17T11:35:02;5.20;;;2.20;;
67986;SDS011;54767;53.800;15.956;2022-09-17T11:37:49;6.90;;;2.10;;
67986;SDS011;54767;53.800;15.956;2022-09-17T11:43:01;7.30;;;1.80;;
67986;SDS011;54767;53.800;15.956;2022-09-17T11:45:38;4.70;;;1.40;;
67986;SDS011;54767;53.800;15.956;2022-09-17T11:48:16;5.10;;;1.50;;
67986;SDS011;54767;53.800;15.956;2022-09-17T11:50:50;4.00;;;1.40;;
67986;SDS011;54767;53.800;15.956;2022-09-17T11:53:39;3.60;;;1.30;;
67986;SDS011;54767;53.800;15.956;2022-09-17T12:01:54;5.20;;;1.50;;
67986;SDS011;54767;53.800;15.956;2022-09-17T12:10:11;7.70;;;2.30;;
67986;SDS011;54767;53.800;15.956;2022-09-17T12:19:11;5.60;;;2.40;;
67986;SDS011;54767;53.800;15.956;2022-09-17T12:21:52;3.40;;;1.40;;
67986;SDS011;54767;53.800;15.956;2022-09-17T12:24:25;6.10;;;1.60;;
67986;SDS011;54767;53.800;15.956;2022-09-17T12:32:43;2.70;;;1.40;;
67986;SDS011;54767;53.800;15.956;2022-09-17T13:13:38;2.60;;;0.80;;
67986;SDS011;54767;53.800;15.956;2022-09-17T13:22:44;3.00;;;1.20;;
67986;SDS011;54767;53.800;15.956;2022-09-17T13:25:15;3.70;;;1.30;;
67986;SDS011;54767;53.800;15.956;2022-09-17T13:28:42;6.70;;;1.90;;
67986;SDS011;54767;53.800;15.956;2022-09-17T13:56:35;2.30;;;1.30;;
67986;SDS011;54767;53.800;15.956;2022-09-17T13:59:09;3.40;;;1.10;;
67986;SDS011;54767;53.800;15.956;2022-09-17T14:01:56;3.40;;;1.00;;
67986;SDS011;54767;53.800;15.956;2022-09-17T14:04:32;3.20;;;2.00;;
67986;SDS011;54767;53.800;15.956;2022-09-17T14:12:53;3.50;;;2.10;;
67986;SDS011;54767;53.800;15.956;2022-09-17T14:22:00;1.10;;;1.00;;
67986;SDS011;54767;53.800;15.956;2022-09-17T14:24:36;1.40;;;1.10;;
67986;SDS011;54767;53.800;15.956;2022-09-17T14:30:03;1.80;;;1.00;;
67986;SDS011;54767;53.800;15.956;2022-09-17T14:32:54;1.50;;;0.70;;
67986;SDS011;54767;53.800;15.956;2022-09-17T14:41:38;1.80;;;1.00;;
67986;SDS011;54767;53.800;15.956;2022-09-17T14:47:15;2.90;;;1.20;;
67986;SDS011;54767;53.800;15.956;2022-09-17T14:50:45;3.00;;;1.30;;
67986;SDS011;54767;53.800;15.956;2022-09-17T14:53:19;4.10;;;1.30;;
67986;SDS011;54767;53.800;15.956;2022-09-17T14:56:06;4.40;;;1.40;;
67986;SDS011;54767;53.800;15.956;2022-09-17T14:58:50;4.00;;;1.50;;
67986;SDS011;54767;53.800;15.956;2022-09-17T15:01:25;5.10;;;1.30;;
67986;SDS011;54767;53.800;15.956;2022-09-17T15:09:49;6.00;;;1.50;;
67986;SDS011;54767;53.800;15.956;2022-09-17T15:13:40;3.90;;;1.40;;
67986;SDS011;54767;53.800;15.956;2022-09-17T15:16:43;5.40;;;2.10;;
67986;SDS011;54767;53.800;15.956;2022-09-17T15:19:22;4.60;;;1.80;;
67986;SDS011;54767;53.800;15.956;2022-09-17T15:22:11;6.00;;;1.70;;
67986;SDS011;54767;53.800;15.956;2022-09-17T15:31:14;20.60;;;2.60;;
67986;SDS011;54767;53.800;15.956;2022-09-17T15:34:09;7.90;;;1.60;;
67986;SDS011;54767;53.800;15.956;2022-09-17T15:36:39;13.50;;;2.60;;
67986;SDS011;54767;53.800;15.956;2022-09-17T15:39:27;11.40;;;2.10;;
67986;SDS011;54767;53.800;15.956;2022-09-17T15:41:57;9.20;;;3.50;;
67986;SDS011;54767;53.800;15.956;2022-09-17T15:44:26;21.40;;;12.40;;
67986;SDS011;54767;53.800;15.956;2022-09-17T15:50:14;8.20;;;3.30;;
67986;SDS011;54767;53.800;15.956;2022-09-17T15:52:47;4.50;;;2.30;;
67986;SDS011;54767;53.800;15.956;2022-09-17T15:55:29;5.20;;;1.40;;
67986;SDS011;54767;53.800;15.956;2022-09-17T15:58:04;2.00;;;1.40;;
67986;SDS011;54767;53.800;15.956;2022-09-17T16:00:46;1.60;;;0.70;;
67986;SDS011;54767;53.800;15.956;2022-09-17T16:06:56;2.60;;;0.70;;
67986;SDS011;54767;53.800;15.956;2022-09-17T16:11:29;0.80;;;0.60;;
67986;SDS011;54767;53.800;15.956;2022-09-17T16:13:59;2.40;;;1.10;;
67986;SDS011;54767;53.800;15.956;2022-09-17T16:19:03;1.70;;;0.70;;
67986;SDS011;54767;53.800;15.956;2022-09-17T16:21:33;3.00;;;0.90;;
67986;SDS011;54767;53.800;15.956;2022-09-17T16:24:02;3.40;;;1.10;;
67986;SDS011;54767;53.800;15.956;2022-09-17T16:29:28;1.60;;;0.60;;
67986;SDS011;54767;53.800;15.956;2022-09-17T16:31:56;3.90;;;0.90;;
67986;SDS011;54767;53.800;15.956;2022-09-17T16:34:27;1.30;;;0.60;;
67986;SDS011;54767;53.800;15.956;2022-09-17T16:36:56;1.60;;;0.80;;
67986;SDS011;54767;53.800;15.956;2022-09-17T16:39:24;1.30;;;1.00;;
67986;SDS011;54767;53.800;15.956;2022-09-17T16:41:52;2.70;;;0.80;;
67986;SDS011;54767;53.800;15.956;2022-09-17T16:44:20;1.90;;;0.60;;
67986;SDS011;54767;53.800;15.956;2022-09-17T16:46:48;2.30;;;0.60;;
67986;SDS011;54767;53.800;15.956;2022-09-17T16:49:16;2.20;;;0.90;;
67986;SDS011;54767;53.800;15.956;2022-09-17T16:51:44;1.70;;;1.10;;
67986;SDS011;54767;53.800;15.956;2022-09-17T16:54:13;2.30;;;0.90;;
67986;SDS011;54767;53.800;15.956;2022-09-17T16:56:41;5.10;;;1.00;;
67986;SDS011;54767;53.800;15.956;2022-09-17T16:59:09;1.70;;;1.00;;
67986;SDS011;54767;53.800;15.956;2022-09-17T17:01:37;2.90;;;1.20;;
67986;SDS011;54767;53.800;15.956;2022-09-17T17:04:06;5.10;;;1.80;;
67986;SDS011;54767;53.800;15.956;2022-09-17T17:06:37;3.20;;;1.80;;
67986;SDS011;54767;53.800;15.956;2022-09-17T17:09:05;4.60;;;2.10;;
67986;SDS011;54767;53.800;15.956;2022-09-17T17:11:34;4.30;;;2.20;;
67986;SDS011;54767;53.800;15.956;2022-09-17T17:14:05;4.10;;;1.90;;
67986;SDS011;54767;53.800;15.956;2022-09-17T17:16:38;3.30;;;2.30;;
67986;SDS011;54767;53.800;15.956;2022-09-17T17:19:07;2.20;;;1.30;;
67986;SDS011;54767;53.800;15.956;2022-09-17T17:24:31;4.70;;;1.80;;
67986;SDS011;54767;53.800;15.956;2022-09-17T17:27:00;3.80;;;1.60;;
67986;SDS011;54767;53.800;15.956;2022-09-17T17:29:28;4.00;;;1.60;;
67986;SDS011;54767;53.800;15.956;2022-09-17T17:31:56;3.80;;;1.80;;
67986;SDS011;54767;53.800;15.956;2022-09-17T17:34:29;5.20;;;2.40;;
67986;SDS011;54767;53.800;15.956;2022-09-17T18:07:12;3.30;;;1.50;;
67986;SDS011;54767;53.800;15.956;2022-09-17T18:10:15;1.70;;;1.50;;
67986;SDS011;54767;53.800;15.956;2022-09-17T18:12:44;4.00;;;1.90;;
67986;SDS011;54767;53.800;15.956;2022-09-17T18:15:23;3.80;;;1.90;;
67986;SDS011;54767;53.800;15.956;2022-09-17T18:18:19;5.90;;;4.40;;
67986;SDS011;54767;53.800;15.956;2022-09-17T18:21:03;3.90;;;2.30;;
67986;SDS011;54767;53.800;15.956;2022-09-17T18:23:35;2.10;;;1.50;;
67986;SDS011;54767;53.800;15.956;2022-09-17T18:26:17;1.80;;;1.20;;
67986;SDS011;54767;53.800;15.956;2022-09-17T18:28:55;4.30;;;1.10;;
67986;SDS011;54767;53.800;15.956;2022-09-17T18:31:26;2.00;;;1.10;;
67986;SDS011;54767;53.800;15.956;2022-09-17T18:34:18;1.70;;;1.40;;
67986;SDS011;54767;53.800;15.956;2022-09-17T18:36:55;2.30;;;1.80;;
67986;SDS011;54767;53.800;15.956;2022-09-17T18:39:23;3.20;;;1.20;;
67986;SDS011;54767;53.800;15.956;2022-09-17T18:42:14;3.20;;;1.40;;
67986;SDS011;54767;53.800;15.956;2022-09-17T18:44:56;6.80;;;2.40;;
67986;SDS011;54767;53.800;15.956;2022-09-17T18:48:36;5.60;;;3.10;;
67986;SDS011;54767;53.800;15.956;2022-09-17T18:54:34;4.90;;;2.00;;
67986;SDS011;54767;53.800;15.956;2022-09-17T19:04:23;4.30;;;1.90;;
67986;SDS011;54767;53.800;15.956;2022-09-17T19:06:55;5.30;;;2.00;;
67986;SDS011;54767;53.800;15.956;2022-09-17T19:09:55;3.70;;;1.60;;
67986;SDS011;54767;53.800;15.956;2022-09-17T19:12:36;4.30;;;1.60;;
67986;SDS011;54767;53.800;15.956;2022-09-17T19:15:10;5.90;;;2.00;;
67986;SDS011;54767;53.800;15.956;2022-09-17T19:22:15;3.90;;;2.10;;
67986;SDS011;54767;53.800;15.956;2022-09-17T19:24:53;5.30;;;2.00;;
67986;SDS011;54767;53.800;15.956;2022-09-17T19:27:21;3.00;;;1.90;;
67986;SDS011;54767;53.800;15.956;2022-09-17T19:37:00;4.90;;;2.00;;
67986;SDS011;54767;53.800;15.956;2022-09-17T19:39:28;5.80;;;2.30;;
67986;SDS011;54767;53.800;15.956;2022-09-17T19:44:58;4.10;;;1.90;;
67986;SDS011;54767;53.800;15.956;2022-09-17T19:47:40;4.50;;;2.20;;
67986;SDS011;54767;53.800;15.956;2022-09-17T19:50:09;5.40;;;2.20;;
67986;SDS011;54767;53.800;15.956;2022-09-17T19:53:38;5.60;;;2.50;;
67986;SDS011;54767;53.800;15.956;2022-09-17T19:56:47;3.70;;;2.00;;
67986;SDS011;54767;53.800;15.956;2022-09-17T19:59:15;4.00;;;2.00;;
67986;SDS011;54767;53.800;15.956;2022-09-17T20:01:47;4.40;;;2.30;;
67986;SDS011;54767;53.800;15.956;2022-09-17T20:04:18;5.10;;;2.80;;
67986;SDS011;54767;53.800;15.956;2022-09-17T20:06:46;6.50;;;2.60;;
67986;SDS011;54767;53.800;15.956;2022-09-17T20:13:19;5.70;;;2.80;;
67986;SDS011;54767;53.800;15.956;2022-09-17T20:15:50;5.60;;;2.70;;
67986;SDS011;54767;53.800;15.956;2022-09-17T20:18:20;5.60;;;2.70;;
67986;SDS011;54767;53.800;15.956;2022-09-17T20:21:08;5.00;;;2.50;;
67986;SDS011;54767;53.800;15.956;2022-09-17T20:23:56;7.60;;;2.70;;
67986;SDS011;54767;53.800;15.956;2022-09-17T20:26:25;6.30;;;2.70;;
67986;SDS011;54767;53.800;15.956;2022-09-17T20:28:59;7.20;;;2.70;;
67986;SDS011;54767;53.800;15.956;2022-09-17T20:31:29;5.30;;;2.90;;
67986;SDS011;54767;53.800;15.956;2022-09-17T20:34:01;5.30;;;2.60;;
67986;SDS011;54767;53.800;15.956;2022-09-17T20:36:33;6.00;;;2.40;;
67986;SDS011;54767;53.800;15.956;2022-09-17T20:39:06;6.90;;;2.30;;
67986;SDS011;54767;53.800;15.956;2022-09-17T20:41:49;5.00;;;2.00;;
67986;SDS011;54767;53.800;15.956;2022-09-17T20:44:32;6.00;;;2.40;;
67986;SDS011;54767;53.800;15.956;2022-09-17T20:47:01;4.30;;;2.40;;
67986;SDS011;54767;53.800;15.956;2022-09-17T20:49:31;5.60;;;2.10;;
67986;SDS011;54767;53.800;15.956;2022-09-17T20:52:11;4.70;;;1.90;;
67986;SDS011;54767;53.800;15.956;2022-09-17T20:54:39;6.70;;;2.50;;
67986;SDS011;54767;53.800;15.956;2022-09-17T20:57:07;6.20;;;2.50;;
67986;SDS011;54767;53.800;15.956;2022-09-17T21:02:45;6.70;;;2.10;;
67986;SDS011;54767;53.800;15.956;2022-09-17T21:05:42;8.10;;;2.60;;